createdAt,value
2022-12-23T00:00:32.823Z,13.30
2022-12-23T00:01:33.162Z,13.20
2022-12-23T00:02:33.634Z,13.70
2022-12-23T00:03:33.801Z,15.10
2022-12-23T00:04:33.994Z,13.50
2022-12-23T00:05:37.880Z,13.20
2022-12-23T00:06:34.571Z,13.70
2022-12-23T00:07:34.874Z,12.70
2022-12-23T00:08:35.221Z,13.40
2022-12-23T00:09:35.550Z,12.40
2022-12-23T00:10:35.797Z,12.70
2022-12-23T00:11:36.062Z,12.90
2022-12-23T00:12:36.363Z,12.10
2022-12-23T00:13:36.676Z,12.40
2022-12-23T00:14:37.004Z,11.10
2022-12-23T00:15:37.272Z,11.70
2022-12-23T00:16:37.701Z,11.70
2022-12-23T00:17:37.927Z,12.10
2022-12-23T00:18:38.226Z,12.10
2022-12-23T00:19:38.528Z,13.80
2022-12-23T00:20:38.806Z,16.00
2022-12-23T00:21:39.091Z,15.40
2022-12-23T00:22:39.409Z,14.60
2022-12-23T00:23:39.690Z,13.60
2022-12-23T00:24:39.986Z,14.80
2022-12-23T00:25:40.336Z,13.70
2022-12-23T00:26:40.569Z,14.00
2022-12-23T00:27:40.899Z,13.20
2022-12-23T00:28:41.198Z,12.50
2022-12-23T00:29:41.475Z,11.00
2022-12-23T00:30:41.782Z,10.30
2022-12-23T00:31:42.101Z,10.60
2022-12-23T00:32:42.305Z,10.30
2022-12-23T00:33:42.554Z,10.10
2022-12-23T00:34:42.883Z,9.80
2022-12-23T00:35:43.216Z,9.40
2022-12-23T00:36:43.602Z,9.60
2022-12-23T00:37:43.840Z,10.40
2022-12-23T00:38:44.154Z,9.70
2022-12-23T00:39:44.471Z,9.30
2022-12-23T00:40:44.753Z,9.10
2022-12-23T00:41:45.001Z,8.70
2022-12-23T00:42:45.301Z,10.20
2022-12-23T00:43:45.593Z,10.60
2022-12-23T00:44:45.959Z,11.40
2022-12-23T00:45:46.310Z,9.20
2022-12-23T00:46:46.584Z,10.30
2022-12-23T00:47:46.850Z,9.80
2022-12-23T00:48:47.126Z,9.40
2022-12-23T00:49:47.460Z,10.70
2022-12-23T00:50:47.734Z,9.50
2022-12-23T00:51:48.201Z,11.00
2022-12-23T00:52:48.371Z,12.00
2022-12-23T00:53:48.636Z,10.40
2022-12-23T00:54:48.955Z,11.70
2022-12-23T00:55:49.220Z,10.80
2022-12-23T00:56:49.485Z,10.50
2022-12-23T00:57:49.811Z,12.80
2022-12-23T00:58:50.095Z,11.80
2022-12-23T00:59:50.380Z,11.10
2022-12-23T01:00:50.716Z,10.60
2022-12-23T01:01:51.139Z,8.70
2022-12-23T01:02:51.309Z,9.40
2022-12-23T01:03:51.500Z,9.70
2022-12-23T01:04:51.824Z,8.90
2022-12-23T01:05:52.070Z,9.40
2022-12-23T01:06:52.383Z,8.80
2022-12-23T01:07:52.655Z,9.60
2022-12-23T01:08:52.947Z,8.70
2022-12-23T01:09:53.257Z,8.20
2022-12-23T01:10:53.516Z,7.90
2022-12-23T01:11:53.831Z,8.80
2022-12-23T01:12:54.117Z,9.50
2022-12-23T01:13:54.446Z,7.60
2022-12-23T01:14:54.727Z,8.50
2022-12-23T01:15:54.957Z,7.30
2022-12-23T01:16:55.296Z,8.40
2022-12-23T01:17:55.565Z,7.20
2022-12-23T01:18:55.805Z,7.30
2022-12-23T01:19:56.120Z,8.00
2022-12-23T01:20:56.396Z,7.40
2022-12-23T01:21:56.659Z,7.80
2022-12-23T01:22:56.906Z,7.20
2022-12-23T01:23:57.234Z,7.40
2022-12-23T01:24:57.492Z,8.30
2022-12-23T01:25:57.778Z,6.80
2022-12-23T01:26:58.040Z,7.40
2022-12-23T01:27:58.342Z,8.70
2022-12-23T01:28:58.600Z,8.00
2022-12-23T01:29:58.894Z,8.90
2022-12-23T01:30:59.167Z,7.60
2022-12-23T01:31:59.487Z,8.20
2022-12-23T01:32:59.758Z,7.10
2022-12-23T01:34:00.036Z,8.10
2022-12-23T01:35:00.358Z,7.90
2022-12-23T01:36:00.624Z,8.60
2022-12-23T01:37:00.893Z,7.10
2022-12-23T01:38:01.139Z,7.20
2022-12-23T01:39:01.417Z,7.50
2022-12-23T01:40:01.757Z,7.40
2022-12-23T01:41:02.001Z,7.10
2022-12-23T01:42:02.306Z,6.30
2022-12-23T01:43:02.539Z,6.10
2022-12-23T01:44:02.807Z,5.70
2022-12-23T01:45:03.153Z,6.10
2022-12-23T01:46:03.509Z,6.60
2022-12-23T01:47:03.659Z,5.70
2022-12-23T01:48:03.984Z,5.10
2022-12-23T01:49:04.207Z,5.10
2022-12-23T01:50:04.528Z,5.70
2022-12-23T01:51:04.797Z,5.00
2022-12-23T01:52:05.010Z,4.20
2022-12-23T01:53:08.167Z,3.90
2022-12-23T01:54:05.637Z,3.80
2022-12-23T01:55:05.944Z,3.80
2022-12-23T01:56:06.200Z,3.30
2022-12-23T01:57:06.457Z,3.50
2022-12-23T01:58:06.684Z,2.80
2022-12-23T01:59:06.964Z,2.90
2022-12-23T02:00:07.227Z,2.70
2022-12-23T02:01:07.549Z,2.80
2022-12-23T02:02:07.945Z,2.10
2022-12-23T02:03:08.252Z,2.20
2022-12-23T02:04:08.374Z,2.20
2022-12-23T02:05:08.681Z,1.90
2022-12-23T02:06:08.917Z,2.10
2022-12-23T02:07:09.192Z,1.90
2022-12-23T02:08:09.475Z,1.70
2022-12-23T02:09:09.765Z,1.80
2022-12-23T02:10:10.058Z,1.90
2022-12-23T02:11:10.287Z,1.90
2022-12-23T02:12:10.577Z,1.80
2022-12-23T02:13:10.863Z,1.80
2022-12-23T02:14:11.139Z,1.70
2022-12-23T02:15:11.460Z,1.80
2022-12-23T02:16:11.690Z,1.70
2022-12-23T02:17:12.054Z,1.40
2022-12-23T02:18:12.547Z,1.40
2022-12-23T02:19:12.663Z,1.30
2022-12-23T02:20:12.937Z,1.20
2022-12-23T02:21:13.168Z,1.40
2022-12-23T02:22:13.463Z,1.30
2022-12-23T02:23:13.702Z,1.20
2022-12-23T02:24:14.016Z,1.40
2022-12-23T02:25:14.295Z,1.30
2022-12-23T02:26:14.565Z,1.40
2022-12-23T02:27:14.826Z,1.20
2022-12-23T02:28:15.176Z,1.30
2022-12-23T02:29:15.410Z,1.30
2022-12-23T02:30:15.724Z,1.30
2022-12-23T02:31:16.044Z,1.50
2022-12-23T02:32:16.304Z,1.40
2022-12-23T02:33:16.546Z,1.60
2022-12-23T02:34:16.844Z,1.30
2022-12-23T02:35:17.129Z,1.40
2022-12-23T02:36:17.378Z,1.30
2022-12-23T02:37:17.658Z,1.30
2022-12-23T02:38:17.942Z,1.30
2022-12-23T02:39:18.244Z,1.00
2022-12-23T02:40:18.490Z,1.20
2022-12-23T02:41:18.765Z,1.50
2022-12-23T02:42:19.017Z,1.30
2022-12-23T02:43:19.284Z,1.30
2022-12-23T02:44:19.530Z,1.60
2022-12-23T02:45:19.857Z,1.20
2022-12-23T02:46:20.198Z,1.40
2022-12-23T02:47:20.458Z,1.50
2022-12-23T02:48:20.753Z,1.60
2022-12-23T02:49:21.040Z,1.40
2022-12-23T02:50:21.316Z,1.20
2022-12-23T02:51:21.566Z,1.40
2022-12-23T02:52:21.837Z,1.50
2022-12-23T02:53:22.121Z,1.30
2022-12-23T02:54:22.447Z,1.40
2022-12-23T02:55:22.743Z,1.30
2022-12-23T02:56:22.968Z,1.60
2022-12-23T02:57:23.258Z,1.20
2022-12-23T02:58:23.576Z,1.40
2022-12-23T02:59:23.852Z,1.30
2022-12-23T03:00:24.089Z,1.40
2022-12-23T03:01:24.358Z,1.60
2022-12-23T03:02:24.808Z,1.50
2022-12-23T03:03:25.007Z,1.50
2022-12-23T03:04:25.246Z,1.30
2022-12-23T03:05:25.512Z,1.40
2022-12-23T03:06:25.793Z,1.50
2022-12-23T03:07:26.009Z,1.20
2022-12-23T03:08:26.295Z,1.40
2022-12-23T03:09:26.602Z,1.30
2022-12-23T03:10:26.874Z,1.30
2022-12-23T03:11:27.148Z,1.10
2022-12-23T03:12:27.380Z,1.20
2022-12-23T03:13:27.716Z,1.40
2022-12-23T03:14:27.957Z,1.50
2022-12-23T03:15:28.271Z,1.70
2022-12-23T03:16:28.532Z,1.50
2022-12-23T03:17:28.812Z,1.60
2022-12-23T03:18:29.115Z,1.50
2022-12-23T03:19:29.352Z,1.90
2022-12-23T03:20:29.640Z,1.90
2022-12-23T03:21:29.929Z,2.50
2022-12-23T03:22:30.206Z,2.10
2022-12-23T03:23:30.491Z,2.10
2022-12-23T03:24:30.785Z,2.70
2022-12-23T03:25:31.107Z,1.80
2022-12-23T03:26:31.364Z,2.50
2022-12-23T03:27:31.686Z,2.40
2022-12-23T03:28:31.914Z,2.60
2022-12-23T03:29:32.228Z,2.90
2022-12-23T03:30:32.510Z,2.40
2022-12-23T03:31:32.767Z,2.60
2022-12-23T03:32:33.039Z,2.60
2022-12-23T03:33:33.276Z,3.00
2022-12-23T03:34:33.565Z,3.00
2022-12-23T03:35:33.893Z,2.80
2022-12-23T03:36:34.168Z,3.00
2022-12-23T03:37:34.427Z,2.90
2022-12-23T03:38:34.671Z,2.70
2022-12-23T03:39:34.997Z,3.20
2022-12-23T03:40:35.243Z,3.30
2022-12-23T03:41:35.495Z,2.60
2022-12-23T03:42:35.791Z,2.80
2022-12-23T03:43:36.022Z,3.10
2022-12-23T03:44:36.321Z,2.80
2022-12-23T03:45:39.917Z,3.10
2022-12-23T03:46:36.960Z,3.00
2022-12-23T03:47:37.200Z,2.90
2022-12-23T03:48:37.525Z,3.30
2022-12-23T03:49:37.744Z,3.00
2022-12-23T03:50:38.068Z,2.70
2022-12-23T03:51:38.306Z,3.10
2022-12-23T03:52:38.628Z,2.70
2022-12-23T03:53:38.949Z,3.20
2022-12-23T03:54:39.190Z,2.80
2022-12-23T03:55:39.515Z,2.60
2022-12-23T03:56:39.780Z,2.80
2022-12-23T03:57:40.036Z,2.80
2022-12-23T03:58:40.280Z,2.50
2022-12-23T03:59:40.562Z,3.10
2022-12-23T04:00:40.841Z,2.30
2022-12-23T04:01:41.241Z,2.70
2022-12-23T04:02:41.643Z,2.80
2022-12-23T04:03:41.730Z,2.80
2022-12-23T04:04:42.009Z,2.50
2022-12-23T04:05:42.291Z,2.80
2022-12-23T04:06:42.568Z,2.70
2022-12-23T04:07:42.805Z,3.40
2022-12-23T04:08:43.089Z,3.00
2022-12-23T04:09:43.392Z,2.70
2022-12-23T04:10:43.665Z,3.00
2022-12-23T04:11:43.934Z,3.20
2022-12-23T04:12:44.198Z,2.90
2022-12-23T04:13:44.457Z,3.10
2022-12-23T04:14:44.708Z,3.10
2022-12-23T04:15:45.098Z,3.20
2022-12-23T04:16:45.384Z,3.10
2022-12-23T04:17:45.605Z,3.70
2022-12-23T04:18:45.892Z,3.00
2022-12-23T04:19:46.216Z,3.80
2022-12-23T04:20:46.503Z,3.40
2022-12-23T04:21:46.741Z,3.20
2022-12-23T04:22:47.022Z,3.90
2022-12-23T04:23:47.324Z,3.80
2022-12-23T04:24:47.595Z,4.00
2022-12-23T04:25:47.914Z,3.80
2022-12-23T04:26:48.172Z,4.60
2022-12-23T04:27:48.478Z,4.50
2022-12-23T04:28:48.806Z,4.00
2022-12-23T04:29:49.068Z,4.30
2022-12-23T04:30:49.367Z,3.90
2022-12-23T04:31:49.666Z,4.00
2022-12-23T04:32:49.944Z,4.00
2022-12-23T04:33:50.185Z,4.30
2022-12-23T04:34:50.510Z,3.70
2022-12-23T04:35:50.781Z,4.30
2022-12-23T04:36:51.071Z,4.00
2022-12-23T04:37:51.360Z,4.40
2022-12-23T04:38:51.609Z,4.70
2022-12-23T04:39:51.905Z,4.10
2022-12-23T04:40:52.213Z,4.30
2022-12-23T04:41:52.543Z,4.00
2022-12-23T04:42:52.833Z,3.80
2022-12-23T04:43:53.642Z,3.40
2022-12-23T04:44:53.482Z,3.60
2022-12-23T04:45:53.811Z,3.50
2022-12-23T04:46:54.105Z,3.10
2022-12-23T04:47:54.401Z,2.90
2022-12-23T04:48:54.648Z,2.90
2022-12-23T04:49:54.919Z,3.00
2022-12-23T04:50:55.263Z,3.20
2022-12-23T04:51:55.486Z,3.70
2022-12-23T04:52:55.798Z,3.40
2022-12-23T04:53:56.112Z,3.40
2022-12-23T04:54:56.377Z,3.70
2022-12-23T04:55:56.667Z,3.30
2022-12-23T04:56:56.942Z,3.90
2022-12-23T04:57:57.270Z,3.10
2022-12-23T04:58:57.525Z,3.50
2022-12-23T04:59:57.839Z,3.40
2022-12-23T05:00:58.220Z,3.30
2022-12-23T05:01:58.465Z,3.60
2022-12-23T05:02:58.686Z,3.80
2022-12-23T05:03:58.915Z,3.90
2022-12-23T05:04:59.167Z,3.70
2022-12-23T05:05:59.525Z,3.60
2022-12-23T05:06:59.812Z,3.30
2022-12-23T05:08:00.090Z,3.60
2022-12-23T05:09:00.330Z,3.50
2022-12-23T05:10:00.620Z,3.50
2022-12-23T05:11:00.938Z,2.90
2022-12-23T05:12:01.199Z,3.60
2022-12-23T05:13:01.454Z,3.20
2022-12-23T05:14:01.741Z,3.10
2022-12-23T05:15:02.032Z,4.10
2022-12-23T05:16:02.425Z,3.00
2022-12-23T05:17:09.628Z,2.90
2022-12-23T05:18:02.880Z,3.20
2022-12-23T05:19:03.159Z,3.10
2022-12-23T05:20:03.446Z,2.80
2022-12-23T05:21:03.831Z,3.10
2022-12-23T05:22:04.087Z,2.80
2022-12-23T05:23:04.306Z,2.50
2022-12-23T05:24:04.617Z,2.60
2022-12-23T05:25:04.846Z,3.00
2022-12-23T05:26:05.161Z,2.80
2022-12-23T05:27:05.409Z,3.10
2022-12-23T05:28:05.703Z,2.80
2022-12-23T05:29:06.038Z,2.60
2022-12-23T05:30:07.203Z,2.90
2022-12-23T05:31:14.268Z,3.10
2022-12-23T05:32:07.071Z,3.60
2022-12-23T05:33:07.254Z,2.70
2022-12-23T05:34:07.546Z,2.70
2022-12-23T05:35:07.816Z,3.00
2022-12-23T05:36:08.096Z,2.60
2022-12-23T05:37:08.380Z,2.70
2022-12-23T05:38:08.632Z,2.70
2022-12-23T05:39:08.876Z,3.20
2022-12-23T05:40:09.198Z,2.40
2022-12-23T05:41:09.513Z,2.80
2022-12-23T05:42:09.739Z,2.40
2022-12-23T05:43:10.049Z,2.80
2022-12-23T05:44:10.323Z,2.90
2022-12-23T05:45:10.587Z,2.80
2022-12-23T05:46:10.960Z,2.40
2022-12-23T05:47:11.167Z,2.60
2022-12-23T05:48:11.398Z,2.60
2022-12-23T05:49:11.666Z,2.50
2022-12-23T05:50:12.000Z,2.50
2022-12-23T05:51:12.262Z,2.40
2022-12-23T05:52:12.512Z,2.60
2022-12-23T05:53:12.785Z,2.20
2022-12-23T05:54:13.004Z,2.70
2022-12-23T05:55:13.284Z,2.40
2022-12-23T05:56:13.634Z,2.70
2022-12-23T05:57:13.821Z,2.90
2022-12-23T05:58:14.103Z,2.50
2022-12-23T05:59:14.404Z,2.80
2022-12-23T06:00:14.682Z,2.00
2022-12-23T06:01:14.990Z,2.50
2022-12-23T06:02:15.326Z,2.70
2022-12-23T06:03:15.727Z,2.40
2022-12-23T06:04:15.890Z,2.50
2022-12-23T06:05:16.123Z,2.50
2022-12-23T06:06:16.466Z,2.60
2022-12-23T06:07:16.731Z,2.70
2022-12-23T06:08:16.978Z,2.30
2022-12-23T06:09:17.211Z,2.20
2022-12-23T06:10:17.502Z,2.20
2022-12-23T06:11:17.825Z,2.10
2022-12-23T06:12:18.101Z,2.20
2022-12-23T06:13:18.326Z,2.70
2022-12-23T06:14:21.455Z,2.50
2022-12-23T06:15:19.920Z,2.50
2022-12-23T06:16:19.274Z,2.70
2022-12-23T06:17:19.524Z,2.20
2022-12-23T06:18:19.816Z,2.50
2022-12-23T06:19:20.111Z,2.00
2022-12-23T06:20:21.194Z,2.20
2022-12-23T06:21:20.673Z,2.40
2022-12-23T06:22:20.953Z,2.00
2022-12-23T06:23:21.207Z,2.00
2022-12-23T06:24:21.513Z,2.10
2022-12-23T06:25:21.759Z,2.00
2022-12-23T06:26:22.087Z,2.30
2022-12-23T06:27:22.315Z,2.10
2022-12-23T06:28:22.630Z,2.40
2022-12-23T06:29:22.903Z,2.20
2022-12-23T06:30:23.124Z,2.20
2022-12-23T06:31:23.471Z,2.80
2022-12-23T06:32:23.693Z,2.20
2022-12-23T06:33:23.995Z,2.30
2022-12-23T06:34:24.249Z,2.30
2022-12-23T06:35:24.517Z,2.30
2022-12-23T06:36:24.775Z,2.30
2022-12-23T06:37:25.024Z,2.10
2022-12-23T06:38:25.303Z,2.10
2022-12-23T06:39:25.596Z,2.40
2022-12-23T06:40:25.859Z,2.20
2022-12-23T06:41:26.094Z,2.20
2022-12-23T06:42:26.403Z,1.80
2022-12-23T06:43:26.648Z,2.10
2022-12-23T06:44:26.925Z,1.90
2022-12-23T06:45:27.215Z,1.80
2022-12-23T06:46:27.692Z,2.10
2022-12-23T06:47:27.790Z,2.00
2022-12-23T06:48:28.040Z,1.60
2022-12-23T06:49:28.310Z,1.70
2022-12-23T06:50:28.556Z,1.80
2022-12-23T06:51:28.874Z,2.00
2022-12-23T06:52:29.136Z,2.10
2022-12-23T06:53:29.365Z,1.80
2022-12-23T06:54:29.653Z,2.10
2022-12-23T06:55:29.927Z,1.90
2022-12-23T06:56:30.252Z,2.00
2022-12-23T06:57:30.513Z,2.00
2022-12-23T06:58:30.774Z,2.20
2022-12-23T06:59:31.040Z,2.10
2022-12-23T07:00:31.352Z,1.80
2022-12-23T07:01:31.705Z,2.40
2022-12-23T07:02:32.046Z,2.30
2022-12-23T07:03:32.338Z,2.20
2022-12-23T07:04:32.449Z,2.20
2022-12-23T07:05:37.005Z,2.80
2022-12-23T07:06:33.981Z,2.50
2022-12-23T07:07:33.312Z,2.50
2022-12-23T07:08:33.568Z,2.40
2022-12-23T07:09:33.862Z,2.40
2022-12-23T07:10:34.154Z,2.20
2022-12-23T07:11:34.399Z,2.30
2022-12-23T07:12:34.671Z,2.00
2022-12-23T07:13:34.899Z,2.40
2022-12-23T07:14:35.178Z,2.20
2022-12-23T07:15:35.452Z,1.90
2022-12-23T07:16:35.797Z,2.50
2022-12-23T07:17:36.038Z,2.20
2022-12-23T07:18:36.346Z,2.50
2022-12-23T07:19:36.625Z,2.10
2022-12-23T07:20:36.934Z,2.30
2022-12-23T07:21:37.168Z,2.30
2022-12-23T07:22:37.496Z,2.10
2022-12-23T07:23:37.755Z,2.10
2022-12-23T07:24:38.083Z,2.30
2022-12-23T07:25:38.334Z,2.10
2022-12-23T07:26:38.679Z,2.20
2022-12-23T07:27:38.949Z,2.20
2022-12-23T07:28:39.187Z,2.40
2022-12-23T07:29:39.487Z,2.20
2022-12-23T07:30:39.802Z,2.30
2022-12-23T07:31:41.219Z,2.40
2022-12-23T07:32:40.312Z,2.20
2022-12-23T07:33:40.616Z,2.20
2022-12-23T07:34:40.889Z,2.20
2022-12-23T07:35:41.169Z,2.40
2022-12-23T07:36:41.575Z,2.10
2022-12-23T07:37:41.714Z,2.20
2022-12-23T07:38:42.004Z,2.40
2022-12-23T07:39:42.273Z,2.40
2022-12-23T07:40:42.703Z,2.40
2022-12-23T07:41:42.805Z,2.60
2022-12-23T07:42:45.565Z,2.50
2022-12-23T07:43:43.395Z,2.30
2022-12-23T07:44:43.682Z,2.50
2022-12-23T07:45:44.057Z,2.30
2022-12-23T07:46:44.436Z,2.60
2022-12-23T07:47:44.643Z,2.30
2022-12-23T07:48:45.045Z,2.60
2022-12-23T07:49:45.186Z,2.30
2022-12-23T07:50:45.457Z,2.60
2022-12-23T07:51:45.794Z,2.30
2022-12-23T07:52:46.104Z,3.20
2022-12-23T07:53:46.388Z,2.80
2022-12-23T07:54:46.700Z,3.00
2022-12-23T07:55:51.518Z,2.70
2022-12-23T07:56:48.315Z,3.10
2022-12-23T07:57:47.565Z,2.90
2022-12-23T07:58:47.870Z,3.00
2022-12-23T07:59:48.221Z,2.90
2022-12-23T08:00:48.475Z,3.30
2022-12-23T08:01:48.893Z,2.80
2022-12-23T08:02:49.277Z,2.80
2022-12-23T08:03:49.483Z,3.10
2022-12-23T08:04:49.641Z,3.10
2022-12-23T08:05:49.938Z,3.20
2022-12-23T08:06:50.249Z,3.30
2022-12-23T08:07:50.604Z,2.80
2022-12-23T08:08:50.874Z,2.80
2022-12-23T08:09:51.254Z,3.40
2022-12-23T08:10:51.550Z,3.30
2022-12-23T08:11:51.797Z,2.90
2022-12-23T08:12:52.128Z,3.10
2022-12-23T08:13:52.392Z,3.20
2022-12-23T08:14:52.805Z,3.30
2022-12-23T08:15:52.974Z,3.20
2022-12-23T08:16:53.347Z,3.10
2022-12-23T08:17:53.987Z,3.20
2022-12-23T08:18:53.841Z,3.00
2022-12-23T08:19:54.195Z,3.20
2022-12-23T08:23:16.590Z,3.30
2022-12-23T08:24:15.989Z,3.50
2022-12-23T08:25:15.212Z,3.40
2022-12-23T08:26:15.505Z,3.60
2022-12-23T08:27:15.852Z,3.30
2022-12-23T08:28:16.161Z,3.60
2022-12-23T08:29:16.422Z,3.40
2022-12-23T08:30:16.748Z,3.10
2022-12-23T08:31:17.180Z,3.30
2022-12-23T08:32:17.352Z,3.10
2022-12-23T08:33:17.664Z,3.00
2022-12-23T08:34:17.961Z,3.10
2022-12-23T08:35:18.318Z,2.70
2022-12-23T08:36:22.711Z,2.90
2022-12-23T08:37:26.236Z,3.10
2022-12-23T08:38:19.072Z,3.20
2022-12-23T08:39:19.336Z,3.00
2022-12-23T08:40:19.615Z,2.90
2022-12-23T08:41:19.895Z,2.30
2022-12-23T08:42:20.252Z,2.70
2022-12-23T08:43:20.532Z,2.50
2022-12-23T08:44:20.795Z,2.60
2022-12-23T08:45:21.099Z,2.50
2022-12-23T08:46:21.488Z,2.40
2022-12-23T08:47:21.637Z,2.90
2022-12-23T08:48:21.988Z,2.60
2022-12-23T08:49:22.304Z,2.40
2022-12-23T08:50:22.564Z,2.50
2022-12-23T08:51:22.909Z,2.30
2022-12-23T08:52:23.180Z,2.30
2022-12-23T08:53:23.500Z,2.60
2022-12-23T08:54:23.804Z,2.60
2022-12-23T08:55:24.080Z,2.50
2022-12-23T08:56:24.367Z,2.40
2022-12-23T08:57:24.701Z,2.60
2022-12-23T08:58:25.018Z,2.20
2022-12-23T08:59:25.309Z,2.30
2022-12-23T09:00:25.574Z,2.30
2022-12-23T09:01:25.994Z,2.40
2022-12-23T09:02:26.340Z,2.70
2022-12-23T09:03:26.594Z,2.10
2022-12-23T09:04:26.779Z,2.80
2022-12-23T09:05:27.084Z,3.20
2022-12-23T09:06:30.047Z,7.40
2022-12-23T09:07:27.598Z,5.10
2022-12-23T09:08:27.949Z,3.70
2022-12-23T09:09:28.222Z,3.50
2022-12-23T09:10:28.589Z,3.60
2022-12-23T09:11:28.742Z,4.20
2022-12-23T09:12:29.112Z,4.20
2022-12-23T09:13:35.224Z,4.30
2022-12-23T09:14:30.674Z,3.70
2022-12-23T09:15:30.067Z,3.60
2022-12-23T09:16:30.376Z,3.60
2022-12-23T09:17:30.560Z,3.30
2022-12-23T09:18:30.862Z,3.90
2022-12-23T09:19:31.163Z,3.80
2022-12-23T09:20:31.539Z,4.10
2022-12-23T09:21:31.809Z,3.90
2022-12-23T09:22:32.123Z,4.00
2022-12-23T09:23:32.498Z,4.30
2022-12-23T09:24:32.723Z,3.90
2022-12-23T09:25:32.991Z,4.80
2022-12-23T09:26:33.277Z,5.20
2022-12-23T09:27:33.605Z,4.80
2022-12-23T09:28:33.940Z,4.60
2022-12-23T09:29:34.272Z,4.30
2022-12-23T09:30:34.562Z,4.80
2022-12-23T09:31:37.573Z,4.90
2022-12-23T09:32:35.130Z,5.20
2022-12-23T09:33:35.454Z,4.90
2022-12-23T09:34:35.819Z,5.10
2022-12-23T09:35:36.069Z,5.70
2022-12-23T09:36:36.220Z,6.30
2022-12-23T09:37:36.705Z,7.00
2022-12-23T09:38:36.958Z,6.40
2022-12-23T09:39:37.216Z,6.70
2022-12-23T09:40:37.398Z,6.80
2022-12-23T09:41:37.828Z,6.50
2022-12-23T09:42:38.353Z,7.30
2022-12-23T09:43:38.307Z,7.00
2022-12-23T09:44:38.644Z,7.30
2022-12-23T09:45:40.802Z,7.70
2022-12-23T09:46:39.221Z,6.70
2022-12-23T09:47:39.401Z,7.20
2022-12-23T09:48:39.764Z,7.00
2022-12-23T09:49:40.023Z,6.90
2022-12-23T09:50:40.434Z,7.20
2022-12-23T09:51:40.458Z,8.20
2022-12-23T09:52:40.956Z,7.60
2022-12-23T09:53:41.064Z,8.30
2022-12-23T09:54:41.395Z,8.00
2022-12-23T09:55:41.685Z,8.50
2022-12-23T09:56:41.985Z,8.30
2022-12-23T09:57:42.378Z,9.00
2022-12-23T09:58:42.589Z,8.50
2022-12-23T09:59:42.790Z,9.40
2022-12-23T10:00:43.136Z,9.50
2022-12-23T10:01:45.079Z,7.80
2022-12-23T10:02:43.963Z,7.40
2022-12-23T10:03:44.159Z,7.30
2022-12-23T10:04:44.308Z,6.80
2022-12-23T10:05:44.616Z,6.80
2022-12-23T10:06:44.913Z,7.60
2022-12-23T10:07:45.182Z,6.60
2022-12-23T10:08:45.545Z,7.00
2022-12-23T10:09:45.935Z,6.10
2022-12-23T10:10:46.232Z,7.50
2022-12-23T10:11:46.471Z,7.50
2022-12-23T10:12:46.755Z,6.80
2022-12-23T10:13:47.058Z,8.50
2022-12-23T10:14:47.268Z,15.10
2022-12-23T10:15:47.702Z,8.60
2022-12-23T10:16:47.812Z,12.90
2022-12-23T10:17:48.222Z,9.60
2022-12-23T10:18:48.502Z,10.20
2022-12-23T10:19:48.997Z,8.80
2022-12-23T10:20:48.952Z,8.70
2022-12-23T10:21:49.189Z,11.50
2022-12-23T10:22:49.389Z,8.20
2022-12-23T10:23:49.708Z,24.70
2022-12-23T10:24:50.009Z,9.70
2022-12-23T10:25:50.387Z,8.10
2022-12-23T10:26:50.719Z,8.10
2022-12-23T10:27:51.019Z,6.00
2022-12-23T10:28:51.317Z,6.50
2022-12-23T10:29:51.746Z,6.20
2022-12-23T10:31:11.076Z,5.80
2022-12-23T10:31:53.283Z,5.20
2022-12-23T10:32:52.750Z,6.70
2022-12-23T10:33:52.767Z,6.10
2022-12-23T10:34:53.042Z,5.00
2022-12-23T10:35:53.396Z,4.20
2022-12-23T10:36:53.716Z,4.60
2022-12-23T10:37:53.989Z,4.70
2022-12-23T10:38:54.277Z,4.70
2022-12-23T10:39:54.537Z,5.00
2022-12-23T10:40:54.852Z,4.80
2022-12-23T10:41:55.205Z,6.70
2022-12-23T10:42:55.460Z,6.40
2022-12-23T10:43:55.841Z,6.90
2022-12-23T10:44:56.133Z,7.30
2022-12-23T10:45:56.455Z,6.60
2022-12-23T10:46:56.739Z,5.90
2022-12-23T10:47:57.070Z,5.90
2022-12-23T10:48:57.335Z,6.50
2022-12-23T10:49:57.638Z,5.60
2022-12-23T10:50:57.935Z,5.30
2022-12-23T10:51:58.264Z,6.10
2022-12-23T10:52:58.595Z,4.60
2022-12-23T10:53:58.873Z,4.40
2022-12-23T10:54:59.164Z,4.40
2022-12-23T10:55:59.454Z,12.20
2022-12-23T10:56:59.777Z,13.60
2022-12-23T10:58:00.103Z,7.70
2022-12-23T10:59:00.394Z,7.70
2022-12-23T11:00:00.715Z,5.90
2022-12-23T11:01:01.028Z,6.20
2022-12-23T11:02:01.465Z,5.40
2022-12-23T11:03:01.747Z,5.00
2022-12-23T11:04:01.952Z,4.70
2022-12-23T11:05:02.214Z,4.70
2022-12-23T11:06:02.535Z,4.00
2022-12-23T11:07:34.439Z,4.10
2022-12-23T11:08:04.108Z,4.30
2022-12-23T11:09:03.378Z,4.40
2022-12-23T11:10:03.667Z,4.00
2022-12-23T11:11:03.946Z,3.80
2022-12-23T11:12:04.211Z,4.10
2022-12-23T11:13:04.534Z,4.10
2022-12-23T11:14:04.848Z,4.10
2022-12-23T11:15:05.108Z,4.50
2022-12-23T11:16:05.459Z,4.20
2022-12-23T11:17:05.778Z,4.40
2022-12-23T11:18:06.094Z,4.00
2022-12-23T11:19:06.401Z,5.20
2022-12-23T11:20:06.681Z,4.60
2022-12-23T11:21:06.985Z,4.40
2022-12-23T11:22:07.243Z,5.10
2022-12-23T11:23:07.611Z,4.00
2022-12-23T11:24:07.927Z,4.10
2022-12-23T11:25:08.177Z,3.70
2022-12-23T11:26:08.500Z,4.00
2022-12-23T11:27:08.780Z,5.70
2022-12-23T11:28:09.092Z,6.30
2022-12-23T11:29:09.380Z,4.70
2022-12-23T11:30:09.724Z,4.90
2022-12-23T11:31:09.988Z,5.00
2022-12-23T11:32:10.284Z,5.80
2022-12-23T11:33:10.652Z,6.80
2022-12-23T11:34:10.946Z,6.60
2022-12-23T11:35:11.284Z,7.10
2022-12-23T11:36:11.565Z,6.30
2022-12-23T11:37:11.930Z,6.00
2022-12-23T11:38:12.215Z,6.40
2022-12-23T11:39:12.544Z,6.60
2022-12-23T11:40:12.821Z,6.20
2022-12-23T11:41:13.133Z,6.30
2022-12-23T11:42:13.391Z,6.80
2022-12-23T11:43:13.765Z,7.60
2022-12-23T11:44:14.071Z,7.60
2022-12-23T11:45:14.357Z,8.00
2022-12-23T11:46:14.749Z,7.70
2022-12-23T11:47:14.914Z,8.70
2022-12-23T11:48:15.299Z,9.00
2022-12-23T11:49:15.635Z,8.30
2022-12-23T11:50:15.850Z,6.70
2022-12-23T11:51:16.297Z,7.20
2022-12-23T11:52:16.439Z,6.50
2022-12-23T11:53:16.703Z,6.10
2022-12-23T11:54:17.077Z,5.50
2022-12-23T11:55:17.356Z,5.20
2022-12-23T11:58:36.234Z,4.80
2022-12-23T11:59:36.528Z,5.00
2022-12-23T12:00:36.822Z,4.40
2022-12-23T12:01:37.149Z,4.70
2022-12-23T12:02:37.528Z,4.40
2022-12-23T12:03:37.762Z,4.20
2022-12-23T12:04:38.015Z,4.40
2022-12-23T12:05:38.280Z,5.20
2022-12-23T12:06:38.632Z,3.90
2022-12-23T12:07:38.884Z,4.00
2022-12-23T12:08:39.207Z,4.20
2022-12-23T12:09:39.581Z,3.80
2022-12-23T12:10:39.772Z,3.50
2022-12-23T12:11:40.064Z,3.60
2022-12-23T12:12:40.416Z,3.60
2022-12-23T12:13:50.697Z,3.00
2022-12-23T12:14:41.292Z,3.40
2022-12-23T12:15:41.449Z,3.40
2022-12-23T12:16:41.829Z,3.70
2022-12-23T12:17:41.975Z,3.60
2022-12-23T12:18:42.218Z,3.60
2022-12-23T12:19:42.572Z,3.40
2022-12-23T12:20:42.846Z,3.10
2022-12-23T12:21:43.173Z,3.30
2022-12-23T12:22:43.380Z,3.10
2022-12-23T12:23:43.577Z,3.10
2022-12-23T12:24:43.930Z,3.40
2022-12-23T12:25:44.181Z,3.60
2022-12-23T12:26:44.418Z,3.80
2022-12-23T12:27:44.600Z,3.50
2022-12-23T12:28:44.992Z,3.60
2022-12-23T12:29:45.230Z,3.40
2022-12-23T12:30:45.521Z,3.40
2022-12-23T12:31:45.878Z,3.40
2022-12-23T12:32:46.069Z,3.80
2022-12-23T12:33:46.223Z,3.60
2022-12-23T12:34:46.609Z,3.90
2022-12-23T12:35:50.723Z,4.30
2022-12-23T12:36:48.204Z,4.80
2022-12-23T12:37:47.529Z,4.90
2022-12-23T12:38:47.748Z,4.10
2022-12-23T12:39:48.069Z,4.80
2022-12-23T12:40:48.310Z,4.80
2022-12-23T12:41:48.593Z,4.90
2022-12-23T12:42:48.764Z,4.70
2022-12-23T12:43:49.270Z,4.90
2022-12-23T12:44:49.442Z,5.10
2022-12-23T12:45:49.760Z,5.40
2022-12-23T12:46:49.994Z,5.40
2022-12-23T12:47:55.780Z,5.40
2022-12-23T12:48:51.627Z,5.70
2022-12-23T12:49:50.882Z,5.90
2022-12-23T12:50:51.229Z,6.80
2022-12-23T12:51:51.644Z,7.00
2022-12-23T12:52:51.720Z,8.80
2022-12-23T12:53:51.995Z,10.00
2022-12-23T12:54:52.288Z,8.40
2022-12-23T12:55:52.573Z,9.40
2022-12-23T12:56:52.915Z,11.00
2022-12-23T12:57:53.185Z,10.10
2022-12-23T12:58:53.431Z,11.60
2022-12-23T12:59:53.738Z,9.70
2022-12-23T13:00:53.987Z,9.80
2022-12-23T13:01:54.295Z,8.30
2022-12-23T13:02:54.657Z,8.70
2022-12-23T13:03:54.863Z,8.40
2022-12-23T13:04:55.285Z,7.50
2022-12-23T13:05:55.512Z,7.50
2022-12-23T13:06:55.682Z,6.80
2022-12-23T13:07:56.031Z,5.80
2022-12-23T13:08:56.263Z,6.60
2022-12-23T13:09:56.671Z,6.20
2022-12-23T13:10:57.056Z,5.60
2022-12-23T13:11:57.487Z,5.30
2022-12-23T13:12:57.518Z,5.20
2022-12-23T13:13:57.849Z,4.90
2022-12-23T13:14:58.151Z,5.30
2022-12-23T13:15:58.364Z,5.50
2022-12-23T13:16:58.658Z,4.80
2022-12-23T13:18:01.971Z,5.30
2022-12-23T13:19:00.187Z,4.80
2022-12-23T13:19:59.603Z,5.00
2022-12-23T13:20:59.779Z,6.10
2022-12-23T13:21:59.997Z,5.20
2022-12-23T13:23:20.729Z,5.60
2022-12-23T13:24:04.220Z,5.20
2022-12-23T13:25:00.982Z,5.80